Time;durP1;ratioP1;P1;durP2;ratioP2;P2;SDS_P1;SDS_P2;PMS_P1;PMS_P2;Temp;Humidity;BMP_temperature;BMP_pressure;BME280_temperature;BME280_humidity;BME280_pressure;Samples;Min_cycle;Max_cycle;Signal;HPM_P1;HPM_P2
2023/08/18 00:01:09;;;;;;;4.93;4.72;;;19.50;99.90;;;;;;4175945;28;20107;-78
2023/08/18 00:03:30;;;;;;;4.93;4.60;;;19.50;99.90;;;;;;4174374;28;20087;-79
2023/08/18 00:05:50;;;;;;;5.03;4.93;;;19.60;99.90;;;;;;4178584;28;20112;-79
2023/08/18 00:08:10;;;;;;;4.40;4.30;;;19.40;99.90;;;;;;4182031;28;20051;-78
2023/08/18 00:10:30;;;;;;;4.40;4.20;;;19.50;99.90;;;;;;4177046;28;20048;-79
2023/08/18 00:12:50;;;;;;;4.40;4.30;;;19.70;99.90;;;;;;4179474;28;20127;-78
2023/08/18 00:15:10;;;;;;;4.90;4.80;;;19.70;99.90;;;;;;4179522;28;20052;-79
2023/08/18 00:17:30;;;;;;;4.20;4.00;;;19.60;99.90;;;;;;4176150;28;20228;-79
2023/08/18 00:19:50;;;;;;;4.72;4.53;;;19.40;99.90;;;;;;4179342;28;20048;-79
2023/08/18 00:22:11;;;;;;;5.60;5.35;;;19.30;99.90;;;;;;4177266;28;20052;-79
2023/08/18 00:24:30;;;;;;;5.43;5.20;;;19.20;99.90;;;;;;4177655;28;20056;-79
2023/08/18 00:26:50;;;;;;;5.45;5.32;;;19.20;99.90;;;;;;4176658;28;20402;-79
2023/08/18 00:29:10;;;;;;;4.57;4.25;;;19.40;99.90;;;;;;4178568;28;20052;-78
2023/08/18 00:31:30;;;;;;;5.60;5.45;;;19.50;99.90;;;;;;4181128;28;20056;-79
2023/08/18 00:33:51;;;;;;;5.05;4.95;;;19.80;99.90;;;;;;4175415;28;20237;-79
2023/08/18 00:36:11;;;;;;;6.07;5.88;;;19.70;99.90;;;;;;4179475;28;20086;-79
2023/08/18 00:38:31;;;;;;;4.85;4.65;;;19.50;99.90;;;;;;4183376;28;20048;-79
2023/08/18 00:40:51;;;;;;;5.40;5.28;;;19.40;99.90;;;;;;4181158;28;20086;-79
2023/08/18 00:43:11;;;;;;;5.57;5.47;;;19.20;99.90;;;;;;4182431;28;20055;-79
2023/08/18 00:45:34;;;;;;;5.10;4.88;;;19.20;99.90;;;;;;4183221;28;20049;-78
2023/08/18 00:47:54;;;;;;;5.85;5.65;;;19.30;99.90;;;;;;4186061;28;20044;-79
2023/08/18 00:50:17;;;;;;;5.60;5.50;;;19.20;99.90;;;;;;4180785;28;20106;-79
2023/08/18 00:52:39;;;;;;;5.53;4.97;;;19.10;99.90;;;;;;4181301;28;20052;-79
2023/08/18 00:54:59;;;;;;;5.20;5.10;;;19.10;99.90;;;;;;4180273;28;20087;-79
2023/08/18 00:57:20;;;;;;;4.95;4.85;;;19.10;99.90;;;;;;4178475;28;20044;-79
2023/08/18 00:59:41;;;;;;;5.72;5.63;;;19.10;99.90;;;;;;4182245;28;20164;-78
2023/08/18 01:02:02;;;;;;;5.85;5.60;;;19.10;99.90;;;;;;4177358;28;20131;-79
2023/08/18 01:04:22;;;;;;;5.25;5.15;;;19.10;99.90;;;;;;4177808;28;20072;-79
2023/08/18 01:06:42;;;;;;;5.95;5.85;;;18.90;99.90;;;;;;4180390;28;20376;-79
2023/08/18 01:09:03;;;;;;;5.90;5.80;;;18.80;99.90;;;;;;4180732;28;20079;-79
2023/08/18 01:11:29;;;;;;;5.80;5.60;;;18.80;99.90;;;;;;4181743;28;20240;-79
2023/08/18 01:14:22;;;;;;;5.70;5.60;;;18.90;99.90;;;;;;4187696;28;20048;-79
2023/08/18 01:16:47;;;;;;;5.35;5.15;;;18.90;99.90;;;;;;4178388;28;20055;-79
2023/08/18 01:19:12;;;;;;;5.53;5.43;;;19.00;99.90;;;;;;4181570;28;20059;-79
2023/08/18 01:21:33;;;;;;;6.00;5.45;;;19.00;99.90;;;;;;4187180;28;20047;-79
2023/08/18 01:23:53;;;;;;;7.25;6.82;;;19.10;99.90;;;;;;4183728;28;20072;-79
2023/08/18 01:26:12;;;;;;;6.85;6.75;;;19.10;99.90;;;;;;4180534;28;20055;-79
2023/08/18 01:28:33;;;;;;;6.20;6.10;;;19.20;99.90;;;;;;4181020;28;20087;-79
2023/08/18 01:30:54;;;;;;;5.65;5.38;;;19.20;99.90;;;;;;4182381;28;20607;-79
2023/08/18 01:33:52;;;;;;;6.07;5.35;;;19.20;99.90;;;;;;4177301;28;20295;-79
2023/08/18 01:36:22;;;;;;;6.35;5.95;;;19.10;99.90;;;;;;4180392;28;20088;-79
2023/08/18 01:38:45;;;;;;;5.47;5.07;;;18.80;99.90;;;;;;4180367;28;20112;-79
2023/08/18 01:41:07;;;;;;;5.95;5.82;;;18.60;99.90;;;;;;4182783;28;20083;-78
2023/08/18 01:43:30;;;;;;;5.60;5.50;;;18.70;99.90;;;;;;4182168;28;20079;-79
2023/08/18 01:45:50;;;;;;;5.47;5.25;;;18.70;99.90;;;;;;4179485;28;20056;-79
2023/08/18 01:48:10;;;;;;;6.07;5.95;;;18.60;99.90;;;;;;4182236;28;20080;-78
2023/08/18 01:50:30;;;;;;;5.88;5.78;;;18.80;99.90;;;;;;4182744;28;20078;-79
2023/08/18 01:52:50;;;;;;;5.50;5.20;;;18.80;99.90;;;;;;4182548;28;20318;-79
2023/08/18 01:55:10;;;;;;;5.30;5.10;;;18.80;99.90;;;;;;4183881;28;20132;-78
2023/08/18 01:57:30;;;;;;;6.05;5.85;;;18.90;99.90;;;;;;4180922;28;20374;-79
2023/08/18 01:59:50;;;;;;;5.97;5.65;;;18.80;99.90;;;;;;4178178;28;20059;-79
2023/08/18 02:02:10;;;;;;;5.68;5.20;;;18.80;99.90;;;;;;4179262;28;20055;-79
2023/08/18 02:04:30;;;;;;;6.43;5.97;;;18.90;99.90;;;;;;4194218;28;20232;-79
2023/08/18 02:06:50;;;;;;;5.78;5.57;;;18.80;99.90;;;;;;4180131;28;20056;-79
2023/08/18 02:09:10;;;;;;;7.15;6.95;;;18.80;99.90;;;;;;4181331;28;20067;-79
2023/08/18 02:11:31;;;;;;;6.53;6.18;;;18.80;99.90;;;;;;4181693;28;20395;-79
2023/08/18 02:13:50;;;;;;;6.35;5.82;;;18.50;99.90;;;;;;4181192;28;20059;-78
2023/08/18 02:16:11;;;;;;;5.63;5.53;;;18.50;99.90;;;;;;4192483;28;20118;-79
2023/08/18 02:18:32;;;;;;;6.53;6.18;;;18.40;99.90;;;;;;4183823;28;20083;-79
2023/08/18 02:21:02;;;;;;;5.30;5.05;;;18.20;99.90;;;;;;4180847;28;20095;-79
2023/08/18 02:23:22;;;;;;;6.53;6.18;;;18.30;99.90;;;;;;4191955;28;20106;-79
2023/08/18 02:25:42;;;;;;;6.38;6.28;;;18.40;99.90;;;;;;4176307;28;20056;-79
2023/08/18 02:28:02;;;;;;;6.25;6.05;;;18.40;99.90;;;;;;4182152;28;20098;-79
2023/08/18 02:30:22;;;;;;;6.60;6.38;;;18.30;99.90;;;;;;4176711;28;20067;-79
2023/08/18 02:32:42;;;;;;;6.30;5.97;;;18.10;99.90;;;;;;4179629;28;20363;-79
2023/08/18 02:35:03;;;;;;;7.07;6.78;;;18.00;99.90;;;;;;4180100;28;20068;-79
2023/08/18 02:37:23;;;;;;;5.80;5.60;;;18.00;99.90;;;;;;4181352;28;20115;-79
2023/08/18 02:39:43;;;;;;;6.95;6.80;;;17.90;99.90;;;;;;4179802;28;20087;-79
2023/08/18 02:42:04;;;;;;;7.20;6.95;;;17.70;99.90;;;;;;4180198;28;20240;-79
2023/08/18 02:44:25;;;;;;;6.55;6.25;;;17.70;99.90;;;;;;4180156;28;20075;-79
2023/08/18 02:46:46;;;;;;;7.38;7.07;;;17.70;99.90;;;;;;4180241;28;20052;-79
2023/08/18 02:49:06;;;;;;;7.45;7.13;;;17.70;99.90;;;;;;4176079;28;20117;-79
2023/08/18 02:51:26;;;;;;;7.45;7.15;;;17.70;99.90;;;;;;4187550;28;20047;-79
2023/08/18 02:53:48;;;;;;;6.15;6.03;;;17.70;99.90;;;;;;4178955;28;20079;-79
2023/08/18 02:56:08;;;;;;;7.95;7.68;;;17.70;99.90;;;;;;4177459;28;20080;-79
2023/08/18 02:58:30;;;;;;;8.15;7.70;;;17.70;99.90;;;;;;4182805;28;20044;-79
2023/08/18 03:00:50;;;;;;;6.80;6.50;;;17.90;99.90;;;;;;4178177;28;20179;-79
2023/08/18 03:03:10;;;;;;;7.93;7.32;;;18.00;99.90;;;;;;4180264;28;20095;-79
2023/08/18 03:05:30;;;;;;;7.70;7.50;;;18.10;99.90;;;;;;4180614;28;20080;-79
2023/08/18 03:07:50;;;;;;;7.05;6.75;;;18.20;99.90;;;;;;4179799;28;20052;-80
2023/08/18 03:10:11;;;;;;;7.70;7.40;;;18.10;99.90;;;;;;4181096;28;20063;-79
2023/08/18 03:12:31;;;;;;;6.28;6.18;;;18.10;99.90;;;;;;4177507;28;20080;-79
2023/08/18 03:14:52;;;;;;;7.53;7.00;;;18.20;99.90;;;;;;4179146;28;20055;-80
2023/08/18 03:17:12;;;;;;;6.50;6.32;;;18.30;99.90;;;;;;4183963;28;20040;-79
2023/08/18 03:19:32;;;;;;;6.50;6.30;;;18.20;99.90;;;;;;4176887;28;20060;-79
2023/08/18 03:21:52;;;;;;;9.65;7.18;;;18.00;99.90;;;;;;4179846;28;20063;-79
2023/08/18 03:24:13;;;;;;;5.80;5.70;;;18.10;99.90;;;;;;4180854;28;20055;-79
2023/08/18 03:26:33;;;;;;;6.65;6.40;;;18.10;99.90;;;;;;4186912;28;20055;-79
2023/08/18 03:28:56;;;;;;;6.90;6.60;;;17.90;99.90;;;;;;4183427;28;20072;-79
2023/08/18 03:31:16;;;;;;;6.20;6.10;;;18.00;99.90;;;;;;4178008;28;20103;-79
2023/08/18 03:33:36;;;;;;;5.65;5.47;;;18.00;99.90;;;;;;4183034;28;20048;-79
2023/08/18 03:35:57;;;;;;;7.57;6.97;;;17.90;99.90;;;;;;4173402;28;20056;-79
2023/08/18 03:38:17;;;;;;;5.60;5.50;;;17.80;99.90;;;;;;4184395;28;20087;-79
2023/08/18 03:40:37;;;;;;;6.28;5.97;;;17.70;99.90;;;;;;4180737;28;20072;-79
2023/08/18 03:42:57;;;;;;;5.75;5.43;;;17.70;99.90;;;;;;4176744;28;20105;-79
2023/08/18 03:45:16;;;;;;;7.43;7.00;;;17.60;99.90;;;;;;4177120;28;20113;-79
2023/08/18 03:47:36;;;;;;;6.97;6.63;;;17.70;99.90;;;;;;4184801;28;20114;-79
2023/08/18 03:49:56;;;;;;;7.43;7.13;;;17.60;99.90;;;;;;4177230;28;20109;-79
2023/08/18 03:52:16;;;;;;;7.18;6.88;;;17.60;99.90;;;;;;4176790;28;20063;-79
2023/08/18 03:54:37;;;;;;;7.20;6.85;;;17.50;99.90;;;;;;4175301;28;20055;-79
2023/08/18 03:56:57;;;;;;;7.22;6.68;;;17.30;99.90;;;;;;4171973;28;20100;-79
2023/08/18 03:59:17;;;;;;;7.63;7.28;;;17.30;99.90;;;;;;4176842;28;20083;-79
2023/08/18 04:01:37;;;;;;;7.53;7.18;;;17.40;99.90;;;;;;4180039;28;20100;-79
2023/08/18 04:03:59;;;;;;;8.63;8.07;;;17.50;99.90;;;;;;4180332;28;20072;-79
2023/08/18 04:06:18;;;;;;;7.53;7.28;;;17.60;99.90;;;;;;4181618;28;20056;-79
2023/08/18 04:08:40;;;;;;;6.90;6.70;;;17.50;99.90;;;;;;4181710;28;20075;-79
2023/08/18 04:11:00;;;;;;;6.85;6.75;;;17.40;99.90;;;;;;4179568;28;20063;-79
2023/08/18 04:13:20;;;;;;;7.03;6.93;;;17.50;99.90;;;;;;4183123;28;20047;-80
2023/08/18 04:15:41;;;;;;;7.85;7.65;;;17.40;99.90;;;;;;4180032;28;20075;-80
2023/08/18 04:18:01;;;;;;;7.60;7.10;;;17.30;99.90;;;;;;4180670;28;20391;-80
2023/08/18 04:20:21;;;;;;;6.75;6.55;;;17.30;99.90;;;;;;4183906;28;20383;-79
2023/08/18 04:22:41;;;;;;;7.63;7.20;;;17.50;99.90;;;;;;4179564;28;20119;-79
2023/08/18 04:25:01;;;;;;;8.35;8.05;;;17.60;99.90;;;;;;4181701;28;20232;-79
2023/08/18 04:27:21;;;;;;;7.72;7.63;;;17.60;99.90;;;;;;4184981;28;20374;-79
2023/08/18 04:29:42;;;;;;;7.43;7.05;;;17.60;99.90;;;;;;4178310;28;20237;-79
2023/08/18 04:32:04;;;;;;;7.15;6.95;;;17.70;99.90;;;;;;4186120;28;20301;-79
2023/08/18 04:34:23;;;;;;;7.68;7.47;;;17.80;99.90;;;;;;4182802;28;20120;-80
2023/08/18 04:36:44;;;;;;;6.28;6.18;;;17.80;99.90;;;;;;4188556;28;20098;-79
2023/08/18 04:39:04;;;;;;;7.40;7.18;;;17.70;99.90;;;;;;4180497;28;20383;-79
2023/08/18 04:41:24;;;;;;;7.25;6.82;;;17.50;99.90;;;;;;4181298;28;20109;-79
2023/08/18 04:43:44;;;;;;;7.38;7.18;;;17.40;99.90;;;;;;4183729;28;20079;-79
2023/08/18 04:46:05;;;;;;;6.65;6.45;;;17.30;99.90;;;;;;4179582;28;20240;-79
2023/08/18 04:48:25;;;;;;;6.75;6.57;;;17.20;99.90;;;;;;4180462;28;20072;-79
2023/08/18 04:50:44;;;;;;;7.93;7.57;;;17.20;99.90;;;;;;4184755;28;20236;-79
2023/08/18 04:53:04;;;;;;;6.53;6.20;;;17.20;99.90;;;;;;4179153;28;20099;-79
2023/08/18 04:55:24;;;;;;;7.63;7.38;;;17.30;99.90;;;;;;4180099;28;20308;-79
2023/08/18 04:57:44;;;;;;;7.50;6.95;;;17.30;99.90;;;;;;4182887;28;20052;-79
2023/08/18 05:00:06;;;;;;;8.30;7.90;;;17.40;99.90;;;;;;4181018;28;20056;-79
2023/08/18 05:02:27;;;;;;;7.85;7.45;;;17.30;99.90;;;;;;4181017;28;20051;-79
2023/08/18 05:04:47;;;;;;;7.00;6.75;;;17.30;99.90;;;;;;4183090;28;20140;-79
2023/08/18 05:07:07;;;;;;;8.45;8.25;;;17.40;99.90;;;;;;4182024;28;20068;-80
2023/08/18 05:09:28;;;;;;;8.07;7.90;;;17.50;99.90;;;;;;4178681;28;20232;-79
2023/08/18 05:11:48;;;;;;;8.82;8.40;;;17.50;99.90;;;;;;4182082;28;20056;-79
2023/08/18 05:14:08;;;;;;;7.65;7.38;;;17.60;99.90;;;;;;4183970;28;20068;-79
2023/08/18 05:16:28;;;;;;;7.97;7.57;;;17.60;99.90;;;;;;4181946;28;20079;-79
2023/08/18 05:18:48;;;;;;;8.63;8.13;;;17.60;99.90;;;;;;4180011;28;20048;-79
2023/08/18 05:21:08;;;;;;;7.75;7.28;;;17.60;99.90;;;;;;4181380;28;20083;-78
2023/08/18 05:23:30;;;;;;;7.57;7.25;;;17.70;99.90;;;;;;4179019;28;20067;-87
2023/08/18 05:25:54;;;;;;;7.47;7.10;;;17.80;99.90;;;;;;4187107;28;20428;-84
2023/08/18 05:28:16;;;;;;;8.32;7.82;;;17.90;99.90;;;;;;4182405;28;20144;-85
2023/08/18 05:30:36;;;;;;;7.88;7.43;;;17.90;99.90;;;;;;4176737;28;20048;-84
2023/08/18 05:32:56;;;;;;;7.93;7.22;;;18.00;99.90;;;;;;4178390;28;20131;-84
2023/08/18 05:35:16;;;;;;;7.57;7.18;;;18.10;99.90;;;;;;4183445;28;20059;-84
2023/08/18 05:37:36;;;;;;;7.70;7.07;;;18.10;99.90;;;;;;4186669;28;20060;-84
2023/08/18 05:40:00;;;;;;;7.30;7.10;;;18.10;99.90;;;;;;4182638;28;20052;-84
2023/08/18 05:42:20;;;;;;;7.80;7.55;;;18.20;99.90;;;;;;4181438;28;20122;-84
2023/08/18 05:44:42;;;;;;;8.23;7.68;;;18.30;99.90;;;;;;4181214;28;20079;-84
2023/08/18 05:47:03;;;;;;;8.00;7.80;;;18.40;99.90;;;;;;4187959;28;20055;-84
2023/08/18 05:49:24;;;;;;;6.47;6.28;;;18.50;99.90;;;;;;4180987;28;20418;-85
2023/08/18 05:51:44;;;;;;;7.82;7.53;;;18.40;99.90;;;;;;4188411;28;20036;-85
2023/08/18 05:54:06;;;;;;;8.00;7.60;;;18.50;99.90;;;;;;4181579;28;20456;-85
2023/08/18 05:56:26;;;;;;;7.13;6.80;;;18.60;99.90;;;;;;4181099;28;20237;-84
2023/08/18 05:58:47;;;;;;;8.60;7.88;;;18.70;99.90;;;;;;4182898;28;20122;-85
2023/08/18 06:01:07;;;;;;;6.95;6.50;;;18.80;99.90;;;;;;4180831;28;20039;-84
2023/08/18 06:03:29;;;;;;;7.88;7.57;;;18.90;99.90;;;;;;4179188;28;20092;-84
2023/08/18 06:05:49;;;;;;;7.30;6.93;;;18.90;99.90;;;;;;4187423;28;20052;-84
2023/08/18 06:08:09;;;;;;;6.65;6.35;;;19.10;99.90;;;;;;4181661;28;20086;-84
2023/08/18 06:10:29;;;;;;;6.43;6.30;;;19.10;99.90;;;;;;4184391;28;20415;-85
2023/08/18 06:12:49;;;;;;;7.82;7.53;;;19.20;99.90;;;;;;4189347;28;20052;-85
2023/08/18 06:15:10;;;;;;;9.45;7.60;;;19.20;99.90;;;;;;4183255;28;20072;-85
2023/08/18 06:17:31;;;;;;;5.35;4.97;;;19.30;99.90;;;;;;4181382;28;20079;-84
2023/08/18 06:20:14;;;;;;;6.30;5.95;;;19.60;99.90;;;;;;4182721;28;20095;-85
2023/08/18 06:22:35;;;;;;;6.43;6.22;;;19.80;99.90;;;;;;4123771;28;20041;-84
2023/08/18 06:24:56;;;;;;;8.27;7.97;;;19.90;99.90;;;;;;4123774;28;20119;-85
2023/08/18 06:27:15;;;;;;;6.30;5.95;;;19.80;99.90;;;;;;4107181;29;20163;-84
2023/08/18 06:29:37;;;;;;;5.50;5.40;;;19.90;99.90;;;;;;4123372;28;20050;-84
2023/08/18 06:31:56;;;;;;;7.68;6.15;;;20.10;99.90;;;;;;4108777;28;20046;-85
2023/08/18 06:34:18;;;;;;;6.47;6.00;;;20.50;99.90;;;;;;4123724;28;20170;-85
2023/08/18 06:36:37;;;;;;;6.93;6.03;;;20.80;99.90;;;;;;4107520;28;20046;-84
2023/08/18 06:38:59;;;;;;;5.80;5.47;;;20.90;99.90;;;;;;4123633;28;20069;-84
2023/08/18 06:41:19;;;;;;;6.00;5.80;;;21.00;99.90;;;;;;4107655;29;20066;-84
2023/08/18 06:43:40;;;;;;;6.20;6.10;;;21.30;99.90;;;;;;4120927;28;20322;-84
2023/08/18 06:46:00;;;;;;;5.75;5.57;;;21.40;99.90;;;;;;4109896;28;20168;-85
2023/08/18 06:48:21;;;;;;;6.07;5.97;;;21.40;99.90;;;;;;4109893;28;20089;-85
2023/08/18 06:50:42;;;;;;;5.65;5.35;;;21.50;99.90;;;;;;4122308;28;20287;-85
2023/08/18 06:53:03;;;;;;;6.63;6.22;;;21.60;99.90;;;;;;4109654;28;20085;-84
2023/08/18 06:55:22;;;;;;;5.43;5.13;;;21.70;99.90;;;;;;4123507;28;20097;-85
2023/08/18 06:57:51;;;;;;;4.90;4.68;;;22.00;99.90;;;;;;4095705;29;20138;-84
2023/08/18 07:00:13;;;;;;;5.80;5.50;;;21.90;99.90;;;;;;4170624;28;20091;-85
2023/08/18 07:02:33;;;;;;;6.25;5.90;;;21.90;99.90;;;;;;4176907;28;20074;-85
2023/08/18 07:04:53;;;;;;;6.75;6.22;;;22.10;99.90;;;;;;4181857;28;20076;-85
2023/08/18 07:07:14;;;;;;;5.78;5.25;;;22.30;99.90;;;;;;4186151;28;20209;-85
2023/08/18 07:09:57;;;;;;;5.13;5.03;;;22.40;99.90;;;;;;4179579;28;20052;-85
2023/08/18 07:12:17;;;;;;;4.30;4.10;;;22.60;99.90;;;;;;4116523;28;20440;-85
2023/08/18 07:14:37;;;;;;;4.85;4.45;;;22.60;99.90;;;;;;4107370;28;20142;-85
2023/08/18 07:16:59;;;;;;;4.72;4.43;;;23.40;99.90;;;;;;4107808;28;20046;-85
2023/08/18 07:19:20;;;;;;;3.85;3.65;;;23.60;99.90;;;;;;4114787;28;20101;-85
2023/08/18 07:21:39;;;;;;;3.05;2.95;;;23.70;99.90;;;;;;4113116;28;20111;-85
2023/08/18 07:23:59;;;;;;;4.55;4.35;;;23.60;99.90;;;;;;4109276;28;20325;-86
2023/08/18 07:26:19;;;;;;;7.28;4.75;;;23.70;99.90;;;;;;4106285;28;20077;-85
2023/08/18 07:28:41;;;;;;;5.03;4.00;;;23.80;99.90;;;;;;4094179;28;20055;-85
2023/08/18 07:31:03;;;;;;;3.75;3.53;;;24.10;99.90;;;;;;4106015;28;20154;-85
2023/08/18 07:33:27;;;;;;;4.28;2.85;;;24.10;99.90;;;;;;4115938;28;20054;-85
2023/08/18 07:35:47;;;;;;;2.78;2.63;;;24.40;99.90;;;;;;4118665;28;20066;-84
2023/08/18 07:38:07;;;;;;;4.18;2.95;;;24.50;99.90;;;;;;4108977;28;20083;-84
2023/08/18 07:40:27;;;;;;;3.35;3.22;;;24.60;99.90;;;;;;4103890;28;20047;-85
2023/08/18 07:42:47;;;;;;;3.40;3.30;;;24.60;99.90;;;;;;4097818;29;20058;-85
2023/08/18 07:45:07;;;;;;;3.20;3.08;;;24.50;99.90;;;;;;4109502;28;20355;-85
2023/08/18 07:47:27;;;;;;;4.63;2.60;;;25.00;99.90;;;;;;4113335;28;20057;-86
2023/08/18 07:49:49;;;;;;;4.80;2.60;;;25.30;99.90;;;;;;4170060;28;20438;-86
2023/08/18 07:52:09;;;;;;;4.68;3.10;;;25.50;99.90;;;;;;4187974;28;20082;-85
2023/08/18 07:54:29;;;;;;;3.15;2.15;;;25.30;99.90;;;;;;4190159;28;20067;-85
2023/08/18 07:56:50;;;;;;;2.10;2.00;;;25.30;99.90;;;;;;4183522;28;20048;-84
2023/08/18 07:59:09;;;;;;;2.63;2.53;;;25.70;99.90;;;;;;4189229;28;20313;-85
2023/08/18 08:01:30;;;;;;;2.30;2.10;;;25.80;99.90;;;;;;4192587;28;20079;-84
2023/08/18 08:03:51;;;;;;;3.42;2.75;;;26.00;99.90;;;;;;4188173;28;20072;-85
2023/08/18 08:06:11;;;;;;;2.22;2.13;;;26.10;99.90;;;;;;4188242;28;20047;-88
2023/08/18 08:08:32;;;;;;;1.88;1.80;;;26.30;99.90;;;;;;4180591;28;20052;-88
2023/08/18 08:10:52;;;;;;;2.85;2.25;;;26.70;99.90;;;;;;4190333;28;20346;-88
2023/08/18 08:13:12;;;;;;;2.35;2.08;;;26.70;99.80;;;;;;4182941;28;20377;-88
2023/08/18 08:15:32;;;;;;;2.17;2.00;;;26.70;99.80;;;;;;4184033;28;20044;-88
2023/08/18 08:17:56;;;;;;;2.58;2.30;;;26.70;99.70;;;;;;4189644;28;20375;-88
2023/08/18 08:20:18;;;;;;;6.85;3.33;;;27.00;98.00;;;;;;4185843;28;20055;-88
2023/08/18 08:22:38;;;;;;;1.80;1.70;;;26.90;98.80;;;;;;4182143;28;20047;-88
2023/08/18 08:25:03;;;;;;;2.33;2.20;;;27.20;98.60;;;;;;4187545;28;20043;-88
2023/08/18 08:27:24;;;;;;;1.55;1.50;;;27.50;98.00;;;;;;4180876;28;20562;-88
2023/08/18 08:29:45;;;;;;;1.75;1.65;;;27.50;98.10;;;;;;4183706;28;20105;-87
2023/08/18 08:32:05;;;;;;;2.40;2.20;;;27.60;98.00;;;;;;4181561;28;20068;-88
2023/08/18 08:34:30;;;;;;;1.70;1.60;;;28.10;98.20;;;;;;4182114;28;20277;-87
2023/08/18 08:36:51;;;;;;;1.90;1.83;;;28.30;96.30;;;;;;4184941;28;20309;-88
2023/08/18 08:39:15;;;;;;;1.42;1.42;;;28.50;97.00;;;;;;4184294;28;20090;-88
2023/08/18 08:41:35;;;;;;;3.75;2.20;;;28.90;96.30;;;;;;4185826;28;20047;-88
2023/08/18 08:43:55;;;;;;;2.95;1.88;;;28.90;96.10;;;;;;4181206;28;20597;-88
2023/08/18 08:46:16;;;;;;;1.63;1.52;;;28.90;97.20;;;;;;4187801;28;20121;-88
2023/08/18 08:48:44;;;;;;;1.63;1.52;;;29.00;96.00;;;;;;4183647;28;20141;-88
2023/08/18 08:51:07;;;;;;;1.20;1.20;;;29.10;96.10;;;;;;4181371;28;20040;-88
2023/08/18 08:53:35;;;;;;;2.75;1.58;;;29.30;94.90;;;;;;4183977;28;20390;-88
2023/08/18 08:55:56;;;;;;;2.30;1.33;;;29.50;95.20;;;;;;4185162;28;20235;-88
2023/08/18 08:58:17;;;;;;;2.45;1.20;;;29.70;94.60;;;;;;4179507;28;20382;-88
2023/08/18 09:00:38;;;;;;;1.60;1.50;;;29.70;94.30;;;;;;4180388;28;20049;-88
2023/08/18 09:03:01;;;;;;;2.00;1.48;;;29.40;94.80;;;;;;4179103;28;20044;-88
2023/08/18 09:05:22;;;;;;;1.38;1.30;;;29.50;95.10;;;;;;4178627;28;20047;-87
2023/08/18 09:07:47;;;;;;;1.73;1.30;;;29.40;95.00;;;;;;4182087;28;20048;-88
2023/08/18 09:10:12;;;;;;;2.05;1.30;;;29.40;94.50;;;;;;4178849;28;20145;-88
2023/08/18 09:12:34;;;;;;;;;;;29.70;96.30;;;;;;4181464;28;20137;-88
2023/08/18 09:14:55;;;;;;;4.30;1.23;;;30.30;95.70;;;;;;4180368;28;19955;-88
2023/08/18 09:17:15;;;;;;;4.07;1.38;;;30.50;94.30;;;;;;4184981;28;20052;-88
2023/08/18 09:19:35;;;;;;;1.30;1.30;;;30.70;94.20;;;;;;4181559;28;20060;-88
2023/08/18 09:22:03;;;;;;;1.40;1.30;;;30.60;93.60;;;;;;4181112;28;20053;-88
2023/08/18 09:24:23;;;;;;;6.00;1.20;;;30.60;92.80;;;;;;4180766;28;20343;-88
2023/08/18 09:26:43;;;;;;;2.17;1.15;;;30.70;91.80;;;;;;4178586;28;20048;-88
2023/08/18 09:29:06;;;;;;;1.15;1.10;;;30.70;93.20;;;;;;4184804;28;20252;-88
2023/08/18 09:31:26;;;;;;;4.38;1.05;;;30.80;92.50;;;;;;4180742;28;20092;-88
2023/08/18 09:33:46;;;;;;;3.17;1.20;;;31.30;92.70;;;;;;4182255;28;20060;-88
2023/08/18 09:36:10;;;;;;;1.00;1.00;;;31.20;92.10;;;;;;4179903;28;20082;-85
2023/08/18 09:38:41;;;;;;;1.17;0.90;;;31.10;92.40;;;;;;4175643;28;20251;-86
2023/08/18 09:41:03;;;;;;;1.92;1.00;;;31.30;90.10;;;;;;4186286;28;20079;-86
2023/08/18 09:43:24;;;;;;;;;;;31.40;89.30;;;;;;4186969;28;20063;-86
2023/08/18 09:45:45;;;;;;;0.90;0.90;;;31.60;91.30;;;;;;4175831;28;20183;-85
2023/08/18 09:48:07;;;;;;;2.15;0.80;;;31.90;88.30;;;;;;4180562;28;20110;-86
2023/08/18 09:50:30;;;;;;;1.67;0.80;;;32.30;88.70;;;;;;4187954;28;20324;-86
2023/08/18 09:52:54;;;;;;;0.80;0.80;;;32.30;87.30;;;;;;4186118;28;20079;-86
2023/08/18 09:55:16;;;;;;;0.90;0.90;;;32.40;84.70;;;;;;4187522;28;20043;-85
2023/08/18 09:58:06;;;;;;;1.10;0.80;;;32.60;84.60;;;;;;4181825;28;20060;-84
2023/08/18 10:00:27;;;;;;;1.25;0.90;;;32.80;81.90;;;;;;4182133;28;20064;-84
2023/08/18 10:02:49;;;;;;;2.25;0.80;;;32.70;82.20;;;;;;4189835;28;20056;-84
2023/08/18 10:05:12;;;;;;;2.10;1.15;;;32.50;84.90;;;;;;4181791;28;20052;-84
2023/08/18 10:07:33;;;;;;;1.00;0.90;;;32.30;85.00;;;;;;4180543;28;20067;-84
2023/08/18 10:09:54;;;;;;;2.50;1.23;;;32.50;84.40;;;;;;4180573;28;20048;-84
2023/08/18 10:12:14;;;;;;;1.70;0.80;;;32.30;85.50;;;;;;4182146;28;20048;-84
2023/08/18 10:14:36;;;;;;;1.55;0.80;;;32.80;82.70;;;;;;4177469;28;20094;-84
2023/08/18 10:16:58;;;;;;;1.65;0.88;;;33.00;84.40;;;;;;4182974;28;20080;-84
2023/08/18 10:19:50;;;;;;;2.00;0.90;;;33.10;82.60;;;;;;4187598;28;20432;-83
2023/08/18 10:22:10;;;;;;;2.17;1.00;;;33.00;81.70;;;;;;4181086;28;20044;-84
2023/08/18 10:24:36;;;;;;;2.00;1.10;;;33.00;83.10;;;;;;4187299;28;20083;-84
2023/08/18 10:26:58;;;;;;;0.80;0.80;;;33.30;87.00;;;;;;4183463;28;20036;-84
2023/08/18 10:29:20;;;;;;;0.80;0.80;;;33.60;83.20;;;;;;4184945;28;20082;-84
2023/08/18 10:31:56;;;;;;;1.42;1.02;;;33.80;80.10;;;;;;4187107;28;20048;-84
2023/08/18 10:34:22;;;;;;;0.80;0.80;;;33.90;81.40;;;;;;4183566;28;20078;-84
2023/08/18 10:36:43;;;;;;;0.93;0.88;;;34.20;78.80;;;;;;4183419;28;20048;-85
2023/08/18 10:39:24;;;;;;;0.70;0.70;;;33.60;77.00;;;;;;4182391;28;20056;-84
2023/08/18 10:42:07;;;;;;;0.80;0.80;;;33.50;77.60;;;;;;4184356;28;20087;-84
2023/08/18 10:44:27;;;;;;;1.25;0.90;;;33.50;77.50;;;;;;4179624;28;20063;-85
2023/08/18 10:46:47;;;;;;;1.95;0.80;;;33.50;78.80;;;;;;4183779;28;20053;-84
2023/08/18 10:49:07;;;;;;;1.42;0.80;;;33.50;77.10;;;;;;4183379;28;20083;-84
2023/08/18 10:51:28;;;;;;;1.30;1.20;;;33.70;79.80;;;;;;4177796;28;20074;-85
2023/08/18 10:53:50;;;;;;;3.15;0.90;;;33.50;81.30;;;;;;4181105;28;20044;-84
2023/08/18 10:56:09;;;;;;;0.70;0.70;;;33.50;79.30;;;;;;4177731;28;20052;-85
2023/08/18 10:58:31;;;;;;;4.13;1.27;;;33.50;77.50;;;;;;4180095;28;20048;-85
2023/08/18 11:00:51;;;;;;;0.70;0.70;;;33.80;77.90;;;;;;4179037;28;20240;-85
2023/08/18 11:03:12;;;;;;;2.03;0.70;;;34.40;79.40;;;;;;4176654;28;20072;-85
2023/08/18 11:05:32;;;;;;;0.93;0.80;;;34.40;77.90;;;;;;4179160;28;20049;-84
2023/08/18 11:07:52;;;;;;;2.63;0.70;;;34.80;79.20;;;;;;4185929;28;20056;-84
2023/08/18 11:10:18;;;;;;;1.17;0.75;;;34.70;75.80;;;;;;4179131;28;20064;-84
2023/08/18 11:12:40;;;;;;;0.70;0.70;;;35.10;77.40;;;;;;4177498;28;20076;-85
2023/08/18 11:15:01;;;;;;;0.90;0.90;;;35.30;74.60;;;;;;4182495;28;20377;-85
2023/08/18 11:17:21;;;;;;;0.87;0.80;;;35.30;75.80;;;;;;4178667;28;20087;-84
2023/08/18 11:19:42;;;;;;;1.50;0.70;;;35.60;74.80;;;;;;4183148;28;20614;-84
2023/08/18 11:22:02;;;;;;;2.65;0.60;;;35.80;76.30;;;;;;4184263;28;20413;-85
2023/08/18 11:24:23;;;;;;;1.25;0.70;;;36.30;74.70;;;;;;4177681;28;20390;-84
2023/08/18 11:26:44;;;;;;;1.80;0.60;;;36.40;73.40;;;;;;4184974;28;20049;-85
2023/08/18 11:29:05;;;;;;;1.27;0.80;;;35.70;71.80;;;;;;4174259;28;20108;-84
2023/08/18 11:31:26;;;;;;;3.70;0.63;;;35.00;72.60;;;;;;4180464;28;20390;-85
2023/08/18 11:33:47;;;;;;;4.03;1.05;;;35.40;72.70;;;;;;4180537;28;20091;-84
2023/08/18 11:36:10;;;;;;;1.30;0.60;;;35.50;73.20;;;;;;4180170;28;20039;-84
2023/08/18 11:38:31;;;;;;;1.48;0.90;;;35.20;73.40;;;;;;4176110;28;20065;-82
2023/08/18 11:40:51;;;;;;;3.03;0.90;;;35.70;69.40;;;;;;4177347;28;20071;-82
2023/08/18 11:43:12;;;;;;;1.00;0.85;;;35.50;71.10;;;;;;4181534;28;20295;-83
2023/08/18 11:45:32;;;;;;;2.38;0.77;;;35.20;72.90;;;;;;4177606;28;20043;-82
2023/08/18 11:48:01;;;;;;;2.67;0.70;;;35.10;71.10;;;;;;4179931;28;20122;-82
2023/08/18 11:50:29;;;;;;;1.30;0.70;;;34.80;70.20;;;;;;4179146;28;20095;-82
2023/08/18 11:52:53;;;;;;;1.30;0.70;;;34.90;73.60;;;;;;4180925;28;20041;-82
2023/08/18 11:55:13;;;;;;;0.82;0.70;;;35.30;74.20;;;;;;4180623;28;20271;-82
2023/08/18 11:57:33;;;;;;;1.83;0.60;;;34.90;69.80;;;;;;4181853;28;20059;-82
2023/08/18 11:59:53;;;;;;;0.90;0.60;;;34.80;70.10;;;;;;4178891;28;20051;-82
2023/08/18 12:02:22;;;;;;;0.60;0.60;;;35.50;71.90;;;;;;4186742;28;20099;-82
2023/08/18 12:04:42;;;;;;;1.02;0.60;;;35.40;68.50;;;;;;4181792;28;20040;-82
2023/08/18 12:07:03;;;;;;;1.30;0.80;;;35.40;70.70;;;;;;4185654;28;20264;-82
2023/08/18 12:09:24;;;;;;;2.30;0.60;;;35.60;70.90;;;;;;4177284;28;20049;-82
2023/08/18 12:11:44;;;;;;;0.60;0.60;;;35.40;71.20;;;;;;4179803;28;20056;-82
2023/08/18 12:14:05;;;;;;;0.70;0.70;;;35.70;72.50;;;;;;4182945;28;20091;-83
2023/08/18 12:16:25;;;;;;;1.80;0.80;;;35.70;71.30;;;;;;4180235;28;20044;-82
2023/08/18 12:18:44;;;;;;;0.80;0.60;;;35.30;73.40;;;;;;4179347;28;20395;-83